Terminal Aerodrome Forecast
Issued by NWS

Home | Current Version | Previous Version | Text Only | Print | Product List | Glossary On
Versions: 1 2 3 4 5 6 7 8 9 10 11 12 13 14 15 16 17 18 19
000
FTUS44 KHGX 220143 AAA
TAFUTS
TAF AMD
KUTS 220143Z 2202/2224 08005KT P6SM BKN015
      TEMPO 2202/2206 OVC009
     FM220800 36008KT P6SM BKN025 BKN050
     FM221100 35008KT P6SM SCT035
     FM221800 34012KT P6SM SKC=

USA.gov is the U.S. government's official web portal to all federal, state and local government web resources and services.